sensor_id;sensor_type;location;lat;lon;timestamp;temperature;humidity
15184;DHT22;7693;49.266;7.104;2022-09-21T02:01:58;7.90;99.90
15184;DHT22;7693;49.266;7.104;2022-09-21T02:04:25;7.90;99.90
15184;DHT22;7693;49.266;7.104;2022-09-21T02:06:51;7.90;99.90
15184;DHT22;7693;49.266;7.104;2022-09-21T02:09:17;7.90;99.90
15184;DHT22;7693;49.266;7.104;2022-09-21T02:11:43;7.90;99.90
15184;DHT22;7693;49.266;7.104;2022-09-21T02:14:29;7.90;99.90
15184;DHT22;7693;49.266;7.104;2022-09-21T02:28:18;7.90;99.90
15184;DHT22;7693;49.266;7.104;2022-09-21T02:30:55;8.00;99.90
15184;DHT22;7693;49.266;7.104;2022-09-21T02:33:44;8.00;99.90
15184;DHT22;7693;49.266;7.104;2022-09-21T02:36:21;8.00;99.90
15184;DHT22;7693;49.266;7.104;2022-09-21T02:39:02;8.00;99.90
15184;DHT22;7693;49.266;7.104;2022-09-21T02:42:11;8.00;99.90
15184;DHT22;7693;49.266;7.104;2022-09-21T02:44:49;7.90;99.90
15184;DHT22;7693;49.266;7.104;2022-09-21T02:49:50;7.90;99.90
15184;DHT22;7693;49.266;7.104;2022-09-21T02:52:16;7.90;99.90
15184;DHT22;7693;49.266;7.104;2022-09-21T02:54:46;8.00;99.90
15184;DHT22;7693;49.266;7.104;2022-09-21T02:57:15;7.90;99.90
15184;DHT22;7693;49.266;7.104;2022-09-21T02:59:42;7.90;99.90
15184;DHT22;7693;49.266;7.104;2022-09-21T03:02:09;7.90;99.90
15184;DHT22;7693;49.266;7.104;2022-09-21T03:04:37;7.90;99.90
15184;DHT22;7693;49.266;7.104;2022-09-21T03:07:04;7.90;99.90
15184;DHT22;7693;49.266;7.104;2022-09-21T03:09:29;7.90;99.90
15184;DHT22;7693;49.266;7.104;2022-09-21T03:11:55;7.90;99.90
15184;DHT22;7693;49.266;7.104;2022-09-21T03:14:21;7.90;99.90
15184;DHT22;7693;49.266;7.104;2022-09-21T03:16:47;7.80;99.90
15184;DHT22;7693;49.266;7.104;2022-09-21T03:19:12;7.80;99.90
15184;DHT22;7693;49.266;7.104;2022-09-21T03:21:38;7.80;99.90
15184;DHT22;7693;49.266;7.104;2022-09-21T03:24:04;7.70;99.90
15184;DHT22;7693;49.266;7.104;2022-09-21T03:26:29;7.70;99.90
15184;DHT22;7693;49.266;7.104;2022-09-21T03:28:55;7.70;99.90
15184;DHT22;7693;49.266;7.104;2022-09-21T03:31:21;7.60;99.90
15184;DHT22;7693;49.266;7.104;2022-09-21T03:33:46;7.60;99.90
15184;DHT22;7693;49.266;7.104;2022-09-21T03:36:12;7.50;99.90
15184;DHT22;7693;49.266;7.104;2022-09-21T03:38:38;7.50;99.90
15184;DHT22;7693;49.266;7.104;2022-09-21T03:41:04;7.40;99.90
15184;DHT22;7693;49.266;7.104;2022-09-21T03:43:31;7.40;99.90
15184;DHT22;7693;49.266;7.104;2022-09-21T03:45:56;7.40;99.90
15184;DHT22;7693;49.266;7.104;2022-09-21T05:34:48;6.60;99.90
15184;DHT22;7693;49.266;7.104;2022-09-21T05:39:56;6.70;99.90
15184;DHT22;7693;49.266;7.104;2022-09-21T05:42:22;6.80;99.90
15184;DHT22;7693;49.266;7.104;2022-09-21T05:44:48;6.80;99.90
15184;DHT22;7693;49.266;7.104;2022-09-21T05:47:53;6.80;99.90
15184;DHT22;7693;49.266;7.104;2022-09-21T05:53:21;6.80;99.90
15184;DHT22;7693;49.266;7.104;2022-09-21T05:55:55;6.90;99.90
15184;DHT22;7693;49.266;7.104;2022-09-21T06:03:55;6.90;99.90
15184;DHT22;7693;49.266;7.104;2022-09-21T06:06:22;6.80;99.90
15184;DHT22;7693;49.266;7.104;2022-09-21T06:08:48;6.90;99.90
15184;DHT22;7693;49.266;7.104;2022-09-21T06:11:14;6.90;99.90
15184;DHT22;7693;49.266;7.104;2022-09-21T06:13:39;6.90;99.90
15184;DHT22;7693;49.266;7.104;2022-09-21T06:16:06;6.90;99.90
15184;DHT22;7693;49.266;7.104;2022-09-21T06:18:36;7.00;99.90
15184;DHT22;7693;49.266;7.104;2022-09-21T06:21:02;7.10;99.90
15184;DHT22;7693;49.266;7.104;2022-09-21T06:23:28;7.10;99.90
15184;DHT22;7693;49.266;7.104;2022-09-21T06:25:53;7.20;99.90
15184;DHT22;7693;49.266;7.104;2022-09-21T06:28:19;7.30;99.90
15184;DHT22;7693;49.266;7.104;2022-09-21T06:30:53;7.30;99.90
15184;DHT22;7693;49.266;7.104;2022-09-21T06:33:19;7.40;99.90
15184;DHT22;7693;49.266;7.104;2022-09-21T06:35:56;7.50;99.90
15184;DHT22;7693;49.266;7.104;2022-09-21T06:38:23;7.60;99.90
15184;DHT22;7693;49.266;7.104;2022-09-21T06:40:50;7.80;99.90
15184;DHT22;7693;49.266;7.104;2022-09-21T06:43:16;7.90;99.90
15184;DHT22;7693;49.266;7.104;2022-09-21T06:45:41;8.00;99.90
15184;DHT22;7693;49.266;7.104;2022-09-21T06:48:07;8.10;99.90
15184;DHT22;7693;49.266;7.104;2022-09-21T06:50:33;8.20;99.90
15184;DHT22;7693;49.266;7.104;2022-09-21T06:52:59;8.30;99.90
15184;DHT22;7693;49.266;7.104;2022-09-21T06:55:25;8.40;99.90
15184;DHT22;7693;49.266;7.104;2022-09-21T06:57:50;8.50;99.90
15184;DHT22;7693;49.266;7.104;2022-09-21T07:00:16;8.50;99.90
15184;DHT22;7693;49.266;7.104;2022-09-21T07:02:43;8.60;99.90
15184;DHT22;7693;49.266;7.104;2022-09-21T07:05:10;8.60;99.90
15184;DHT22;7693;49.266;7.104;2022-09-21T07:07:36;8.70;99.90
15184;DHT22;7693;49.266;7.104;2022-09-21T07:10:02;8.80;99.90
15184;DHT22;7693;49.266;7.104;2022-09-21T07:12:29;8.90;99.90
15184;DHT22;7693;49.266;7.104;2022-09-21T07:14:57;9.00;99.90
15184;DHT22;7693;49.266;7.104;2022-09-21T07:17:23;9.00;99.90
15184;DHT22;7693;49.266;7.104;2022-09-21T07:19:48;9.10;99.90
15184;DHT22;7693;49.266;7.104;2022-09-21T07:22:14;9.10;99.90
15184;DHT22;7693;49.266;7.104;2022-09-21T07:24:40;9.20;99.90
15184;DHT22;7693;49.266;7.104;2022-09-21T07:27:05;9.20;99.90
15184;DHT22;7693;49.266;7.104;2022-09-21T07:29:31;9.30;99.90
15184;DHT22;7693;49.266;7.104;2022-09-21T07:31:57;9.40;99.90
15184;DHT22;7693;49.266;7.104;2022-09-21T07:34:22;9.50;99.90
15184;DHT22;7693;49.266;7.104;2022-09-21T07:36:48;9.50;99.90
15184;DHT22;7693;49.266;7.104;2022-09-21T07:39:13;9.60;99.90
15184;DHT22;7693;49.266;7.104;2022-09-21T07:41:39;9.70;99.90
15184;DHT22;7693;49.266;7.104;2022-09-21T07:44:04;9.80;99.90
15184;DHT22;7693;49.266;7.104;2022-09-21T07:46:30;9.90;99.90
15184;DHT22;7693;49.266;7.104;2022-09-21T07:48:56;10.00;99.90
15184;DHT22;7693;49.266;7.104;2022-09-21T07:51:22;10.10;99.90
15184;DHT22;7693;49.266;7.104;2022-09-21T07:53:53;10.20;99.90
15184;DHT22;7693;49.266;7.104;2022-09-21T07:56:21;10.20;99.90
15184;DHT22;7693;49.266;7.104;2022-09-21T07:58:46;10.40;99.90
15184;DHT22;7693;49.266;7.104;2022-09-21T08:01:35;10.40;99.90
15184;DHT22;7693;49.266;7.104;2022-09-21T08:04:01;10.50;99.90
15184;DHT22;7693;49.266;7.104;2022-09-21T08:06:29;10.50;99.90
15184;DHT22;7693;49.266;7.104;2022-09-21T08:09:06;10.60;99.90
15184;DHT22;7693;49.266;7.104;2022-09-21T08:11:33;10.80;99.90
15184;DHT22;7693;49.266;7.104;2022-09-21T08:14:01;10.80;99.90
15184;DHT22;7693;49.266;7.104;2022-09-21T08:16:28;10.90;99.90
15184;DHT22;7693;49.266;7.104;2022-09-21T08:18:54;11.00;99.90
15184;DHT22;7693;49.266;7.104;2022-09-21T08:21:20;11.00;99.90
15184;DHT22;7693;49.266;7.104;2022-09-21T08:23:47;11.00;99.90
15184;DHT22;7693;49.266;7.104;2022-09-21T08:26:14;11.00;99.90
15184;DHT22;7693;49.266;7.104;2022-09-21T08:28:43;11.10;99.90
15184;DHT22;7693;49.266;7.104;2022-09-21T08:31:09;11.20;99.90
15184;DHT22;7693;49.266;7.104;2022-09-21T08:33:35;11.30;99.90
15184;DHT22;7693;49.266;7.104;2022-09-21T08:36:01;11.40;99.90
15184;DHT22;7693;49.266;7.104;2022-09-21T08:38:32;11.50;99.90
15184;DHT22;7693;49.266;7.104;2022-09-21T08:41:00;11.60;99.90
15184;DHT22;7693;49.266;7.104;2022-09-21T08:43:35;11.60;99.90
15184;DHT22;7693;49.266;7.104;2022-09-21T08:46:05;11.80;99.90
15184;DHT22;7693;49.266;7.104;2022-09-21T08:48:37;11.90;99.90
15184;DHT22;7693;49.266;7.104;2022-09-21T08:51:10;12.00;99.90
15184;DHT22;7693;49.266;7.104;2022-09-21T08:53:44;12.10;99.90
15184;DHT22;7693;49.266;7.104;2022-09-21T08:56:12;12.10;99.90
15184;DHT22;7693;49.266;7.104;2022-09-21T08:58:38;12.30;99.90
15184;DHT22;7693;49.266;7.104;2022-09-21T09:06:54;12.60;99.90
15184;DHT22;7693;49.266;7.104;2022-09-21T09:09:41;12.70;99.90
15184;DHT22;7693;49.266;7.104;2022-09-21T09:12:55;12.80;99.90
15184;DHT22;7693;49.266;7.104;2022-09-21T09:15:10;12.90;99.90
15184;DHT22;7693;49.266;7.104;2022-09-21T09:20:33;13.10;99.90
15184;DHT22;7693;49.266;7.104;2022-09-21T09:25:42;13.20;99.90
15184;DHT22;7693;49.266;7.104;2022-09-21T09:30:45;13.40;99.90
15184;DHT22;7693;49.266;7.104;2022-09-21T09:33:24;13.40;99.90
15184;DHT22;7693;49.266;7.104;2022-09-21T09:36:05;13.50;99.90
15184;DHT22;7693;49.266;7.104;2022-09-21T09:38:38;13.50;99.90
15184;DHT22;7693;49.266;7.104;2022-09-21T09:41:28;13.60;99.90
15184;DHT22;7693;49.266;7.104;2022-09-21T09:52:03;13.80;99.90
15184;DHT22;7693;49.266;7.104;2022-09-21T09:54:33;13.90;99.90
15184;DHT22;7693;49.266;7.104;2022-09-21T09:57:02;14.00;99.90
15184;DHT22;7693;49.266;7.104;2022-09-21T09:59:34;14.00;99.90
15184;DHT22;7693;49.266;7.104;2022-09-21T10:02:19;14.10;99.90
15184;DHT22;7693;49.266;7.104;2022-09-21T10:05:05;14.10;99.90
15184;DHT22;7693;49.266;7.104;2022-09-21T10:07:43;14.10;99.90
15184;DHT22;7693;49.266;7.104;2022-09-21T10:13:30;14.30;99.90
15184;DHT22;7693;49.266;7.104;2022-09-21T10:21:04;14.50;99.90
15184;DHT22;7693;49.266;7.104;2022-09-21T10:23:31;14.60;99.90
15184;DHT22;7693;49.266;7.104;2022-09-21T10:26:04;14.70;99.90
15184;DHT22;7693;49.266;7.104;2022-09-21T10:28:32;14.70;99.90
15184;DHT22;7693;49.266;7.104;2022-09-21T10:31:09;14.80;99.90
15184;DHT22;7693;49.266;7.104;2022-09-21T10:33:46;14.70;99.90
15184;DHT22;7693;49.266;7.104;2022-09-21T10:36:28;14.60;99.90
15184;DHT22;7693;49.266;7.104;2022-09-21T10:38:55;14.60;99.90
15184;DHT22;7693;49.266;7.104;2022-09-21T14:20:01;17.50;99.90
15184;DHT22;7693;49.266;7.104;2022-09-21T14:25:21;17.50;99.90
15184;DHT22;7693;49.266;7.104;2022-09-21T14:27:49;17.60;99.90
15184;DHT22;7693;49.266;7.104;2022-09-21T14:30:22;17.70;99.90
15184;DHT22;7693;49.266;7.104;2022-09-21T14:33:11;17.60;99.90
15184;DHT22;7693;49.266;7.104;2022-09-21T14:35:44;17.60;99.90
15184;DHT22;7693;49.266;7.104;2022-09-21T14:40:51;17.10;99.90
15184;DHT22;7693;49.266;7.104;2022-09-21T14:43:23;17.20;99.90
15184;DHT22;7693;49.266;7.104;2022-09-21T14:56:26;18.40;99.90
15184;DHT22;7693;49.266;7.104;2022-09-21T15:13:10;18.60;99.90
15184;DHT22;7693;49.266;7.104;2022-09-21T15:18:27;18.90;99.90
15184;DHT22;7693;49.266;7.104;2022-09-21T15:20:59;19.00;99.90
15184;DHT22;7693;49.266;7.104;2022-09-21T15:23:36;18.80;99.90
15184;DHT22;7693;49.266;7.104;2022-09-21T15:26:08;18.40;99.50
15184;DHT22;7693;49.266;7.104;2022-09-21T15:28:41;18.00;99.50
15184;DHT22;7693;49.266;7.104;2022-09-21T15:31:08;17.80;99.60
15184;DHT22;7693;49.266;7.104;2022-09-21T15:33:40;17.60;99.70
15184;DHT22;7693;49.266;7.104;2022-09-21T15:36:08;17.50;99.90
15184;DHT22;7693;49.266;7.104;2022-09-21T15:38:34;17.40;99.90
15184;DHT22;7693;49.266;7.104;2022-09-21T15:41:03;17.30;99.80
15184;DHT22;7693;49.266;7.104;2022-09-21T15:43:31;17.30;99.80
15184;DHT22;7693;49.266;7.104;2022-09-21T15:46:06;17.20;99.60
15184;DHT22;7693;49.266;7.104;2022-09-21T15:48:38;17.10;99.60
15184;DHT22;7693;49.266;7.104;2022-09-21T15:51:18;17.10;99.70
15184;DHT22;7693;49.266;7.104;2022-09-21T15:53:58;17.00;99.30
15184;DHT22;7693;49.266;7.104;2022-09-21T15:56:29;16.90;99.10
15184;DHT22;7693;49.266;7.104;2022-09-21T15:58:59;16.80;99.30
15184;DHT22;7693;49.266;7.104;2022-09-21T16:01:45;16.80;99.40
15184;DHT22;7693;49.266;7.104;2022-09-21T16:04:21;16.70;99.40
15184;DHT22;7693;49.266;7.104;2022-09-21T16:11:56;16.60;99.40
15184;DHT22;7693;49.266;7.104;2022-09-21T16:14:22;16.60;99.50
15184;DHT22;7693;49.266;7.104;2022-09-21T16:17:23;16.60;99.50
15184;DHT22;7693;49.266;7.104;2022-09-21T16:25:32;16.60;99.10
15184;DHT22;7693;49.266;7.104;2022-09-21T16:28:05;16.60;99.30
15184;DHT22;7693;49.266;7.104;2022-09-21T16:30:38;16.50;99.10
15184;DHT22;7693;49.266;7.104;2022-09-21T16:35:58;16.40;99.00
15184;DHT22;7693;49.266;7.104;2022-09-21T16:38:26;16.30;98.80
15184;DHT22;7693;49.266;7.104;2022-09-21T16:40:51;16.20;98.80
15184;DHT22;7693;49.266;7.104;2022-09-21T16:43:18;16.20;98.70
15184;DHT22;7693;49.266;7.104;2022-09-21T16:45:45;16.10;98.60
15184;DHT22;7693;49.266;7.104;2022-09-21T16:48:12;16.10;98.70
15184;DHT22;7693;49.266;7.104;2022-09-21T16:50:37;16.00;99.00
15184;DHT22;7693;49.266;7.104;2022-09-21T16:53:03;15.90;98.70
15184;DHT22;7693;49.266;7.104;2022-09-21T16:55:29;15.90;98.80
15184;DHT22;7693;49.266;7.104;2022-09-21T16:57:55;15.90;98.80
15184;DHT22;7693;49.266;7.104;2022-09-21T17:00:21;15.90;98.70
15184;DHT22;7693;49.266;7.104;2022-09-21T17:02:47;15.80;98.70
15184;DHT22;7693;49.266;7.104;2022-09-21T17:05:13;15.80;98.70
15184;DHT22;7693;49.266;7.104;2022-09-21T17:07:54;15.70;98.70
15184;DHT22;7693;49.266;7.104;2022-09-21T17:10:22;15.60;98.70
15184;DHT22;7693;49.266;7.104;2022-09-21T17:12:56;15.60;98.70
15184;DHT22;7693;49.266;7.104;2022-09-21T17:15:23;15.60;98.80
15184;DHT22;7693;49.266;7.104;2022-09-21T17:17:48;15.50;98.70
15184;DHT22;7693;49.266;7.104;2022-09-21T17:20:26;15.40;98.70
15184;DHT22;7693;49.266;7.104;2022-09-21T19:32:16;11.50;99.90
15184;DHT22;7693;49.266;7.104;2022-09-21T19:34:42;11.50;99.90
15184;DHT22;7693;49.266;7.104;2022-09-21T19:37:08;11.50;99.90
15184;DHT22;7693;49.266;7.104;2022-09-21T19:39:34;11.50;99.90
15184;DHT22;7693;49.266;7.104;2022-09-21T19:47:33;11.40;99.90
15184;DHT22;7693;49.266;7.104;2022-09-21T19:50:18;11.40;99.90
15184;DHT22;7693;49.266;7.104;2022-09-21T19:52:44;11.40;99.90
15184;DHT22;7693;49.266;7.104;2022-09-21T19:55:19;11.30;99.90
15184;DHT22;7693;49.266;7.104;2022-09-21T19:58:05;11.30;99.90
15184;DHT22;7693;49.266;7.104;2022-09-21T20:00:54;11.30;99.90
15184;DHT22;7693;49.266;7.104;2022-09-21T20:03:34;11.20;99.90
15184;DHT22;7693;49.266;7.104;2022-09-21T20:06:17;11.20;99.90
15184;DHT22;7693;49.266;7.104;2022-09-21T20:22:12;11.00;99.90
15184;DHT22;7693;49.266;7.104;2022-09-21T20:27:21;10.90;99.90
15184;DHT22;7693;49.266;7.104;2022-09-21T20:29:49;10.80;99.90
15184;DHT22;7693;49.266;7.104;2022-09-21T20:32:15;10.80;99.90
15184;DHT22;7693;49.266;7.104;2022-09-21T20:34:40;10.80;99.90
15184;DHT22;7693;49.266;7.104;2022-09-21T20:37:11;10.80;99.90
15184;DHT22;7693;49.266;7.104;2022-09-21T20:39:37;10.70;99.90
15184;DHT22;7693;49.266;7.104;2022-09-21T20:42:03;10.70;99.90
15184;DHT22;7693;49.266;7.104;2022-09-21T20:44:29;10.60;99.90
15184;DHT22;7693;49.266;7.104;2022-09-21T20:46:55;10.60;99.90
15184;DHT22;7693;49.266;7.104;2022-09-21T20:49:20;10.60;99.90
15184;DHT22;7693;49.266;7.104;2022-09-21T20:51:46;10.60;99.90
15184;DHT22;7693;49.266;7.104;2022-09-21T20:54:13;10.50;99.90
15184;DHT22;7693;49.266;7.104;2022-09-21T20:56:39;10.50;99.90
15184;DHT22;7693;49.266;7.104;2022-09-21T20:59:05;10.50;99.90
15184;DHT22;7693;49.266;7.104;2022-09-21T21:01:31;10.40;99.90
15184;DHT22;7693;49.266;7.104;2022-09-21T21:03:56;10.40;99.90
15184;DHT22;7693;49.266;7.104;2022-09-21T21:06:28;10.40;99.90
15184;DHT22;7693;49.266;7.104;2022-09-21T21:08:57;10.30;99.90
15184;DHT22;7693;49.266;7.104;2022-09-21T21:11:22;10.30;99.90
15184;DHT22;7693;49.266;7.104;2022-09-21T21:13:50;10.30;99.90
15184;DHT22;7693;49.266;7.104;2022-09-21T21:16:15;10.20;99.90
15184;DHT22;7693;49.266;7.104;2022-09-21T21:18:41;10.20;99.90
15184;DHT22;7693;49.266;7.104;2022-09-21T21:21:08;10.20;99.90
15184;DHT22;7693;49.266;7.104;2022-09-21T21:23:33;10.20;99.90
15184;DHT22;7693;49.266;7.104;2022-09-21T21:26:19;10.20;99.90
15184;DHT22;7693;49.266;7.104;2022-09-21T21:28:45;10.00;99.90
15184;DHT22;7693;49.266;7.104;2022-09-21T21:31:10;10.00;99.90
15184;DHT22;7693;49.266;7.104;2022-09-21T21:33:36;10.00;99.90
15184;DHT22;7693;49.266;7.104;2022-09-21T21:36:05;9.90;99.90
